createdAt,value
2017-10-27T01:36:32.724Z,1019.79
2017-10-27T01:36:33.298Z,1019.74
2017-10-27T01:36:33.898Z,1019.76
2017-10-27T01:36:34.498Z,1019.78
2017-10-27T01:36:35.097Z,1019.75
2017-10-27T01:36:35.701Z,1019.77
2017-10-27T01:36:36.297Z,1019.77
2017-10-27T01:36:36.897Z,1019.76
2017-10-27T01:37:31.398Z,1019.79
2017-10-27T01:37:31.973Z,1019.76
2017-10-27T01:37:32.573Z,1019.76
2017-10-27T01:37:33.176Z,1019.72
2017-10-27T01:37:33.772Z,1019.76
2017-10-27T01:37:34.372Z,1019.73
2017-10-27T01:37:34.972Z,1019.75
2017-10-27T01:37:35.573Z,1019.72
2017-10-27T01:38:29.053Z,1019.75
2017-10-27T01:38:29.626Z,1019.74
2017-10-27T01:38:30.227Z,1019.79
2017-10-27T01:38:30.826Z,1019.75
2017-10-27T01:38:31.425Z,1019.75
2017-10-27T01:38:32.028Z,1019.76
2017-10-27T01:38:32.625Z,1019.77
2017-10-27T01:38:33.225Z,1019.76
2017-10-27T01:39:27.733Z,1019.76
2017-10-27T01:39:28.301Z,1019.78
2017-10-27T01:39:28.901Z,1019.75
2017-10-27T01:39:29.501Z,1019.77
2017-10-27T01:39:30.105Z,1019.79
2017-10-27T01:39:30.703Z,1019.77
2017-10-27T01:39:31.300Z,1019.76
2017-10-27T01:39:31.901Z,1019.79
2017-10-27T01:40:25.380Z,1019.78
2017-10-27T01:40:25.953Z,1019.75
2017-10-27T01:40:26.554Z,1019.75
2017-10-27T01:40:27.154Z,1019.72
2017-10-27T01:40:27.754Z,1019.74
2017-10-27T01:40:28.353Z,1019.74
2017-10-27T01:40:28.954Z,1019.75
2017-10-27T01:40:29.554Z,1019.77
2017-10-27T01:41:23.032Z,1019.73
2017-10-27T01:41:23.607Z,1019.72
2017-10-27T01:41:24.209Z,1019.72
2017-10-27T01:41:24.807Z,1019.73
2017-10-27T01:41:25.407Z,1019.75
2017-10-27T01:41:26.007Z,1019.70
2017-10-27T01:41:26.607Z,1019.71
2017-10-27T01:41:27.219Z,1019.68
2017-10-27T01:42:20.683Z,1019.73
2017-10-27T01:42:21.258Z,1019.73
2017-10-27T01:42:21.858Z,1019.71
2017-10-27T01:42:22.459Z,1019.68
2017-10-27T01:42:23.059Z,1019.69
2017-10-27T01:42:23.658Z,1019.74
2017-10-27T01:42:24.257Z,1019.71
2017-10-27T01:42:24.857Z,1019.70
2017-10-27T01:43:18.336Z,1019.69
2017-10-27T01:43:18.911Z,1019.68
2017-10-27T01:43:19.510Z,1019.68
2017-10-27T01:43:20.111Z,1019.70
2017-10-27T01:43:20.709Z,1019.70
2017-10-27T01:43:21.309Z,1019.68
2017-10-27T01:43:21.910Z,1019.69
2017-10-27T01:43:22.518Z,1019.68
2017-10-27T01:44:15.988Z,1019.71
2017-10-27T01:44:16.575Z,1019.71
2017-10-27T01:44:17.163Z,1019.69
2017-10-27T01:44:17.761Z,1019.68
2017-10-27T01:44:18.361Z,1019.71
2017-10-27T01:44:18.962Z,1019.71
2017-10-27T01:44:19.561Z,1019.66
2017-10-27T01:44:20.161Z,1019.67
2017-10-27T01:45:14.663Z,1019.64
2017-10-27T01:45:15.238Z,1019.63
2017-10-27T01:45:15.837Z,1019.65
2017-10-27T01:45:16.438Z,1019.66
2017-10-27T01:45:17.039Z,1019.66
2017-10-27T01:45:17.638Z,1019.70
2017-10-27T01:45:18.237Z,1019.63
2017-10-27T01:45:18.837Z,1019.65
2017-10-27T01:46:13.338Z,1019.66
2017-10-27T01:46:13.913Z,1019.64
2017-10-27T01:46:14.514Z,1019.64
2017-10-27T01:46:15.113Z,1019.63
2017-10-27T01:46:15.712Z,1019.67
2017-10-27T01:46:16.312Z,1019.66
2017-10-27T01:46:16.912Z,1019.64
2017-10-27T01:46:17.513Z,1019.65
2017-10-27T01:47:12.015Z,1019.64
2017-10-27T01:47:12.590Z,1019.65
2017-10-27T01:47:13.189Z,1019.69
2017-10-27T01:47:13.789Z,1019.68
2017-10-27T01:47:14.388Z,1019.71
2017-10-27T01:47:14.989Z,1019.71
2017-10-27T01:47:15.588Z,1019.68
2017-10-27T01:47:16.188Z,1019.65
2017-10-27T01:48:10.691Z,1019.62
2017-10-27T01:48:11.266Z,1019.64
2017-10-27T01:48:11.865Z,1019.62
2017-10-27T01:48:12.465Z,1019.62
2017-10-27T01:48:13.064Z,1019.63
2017-10-27T01:48:13.665Z,1019.62
2017-10-27T01:48:14.264Z,1019.60
2017-10-27T01:48:14.866Z,1019.62
2017-10-27T01:49:09.367Z,1019.62
2017-10-27T01:49:09.945Z,1019.66
2017-10-27T01:49:10.540Z,1019.64
2017-10-27T01:49:11.144Z,1019.61
2017-10-27T01:49:11.742Z,1019.64
2017-10-27T01:49:12.340Z,1019.62
2017-10-27T01:49:12.940Z,1019.63
2017-10-27T01:49:13.541Z,1019.60
2017-10-27T01:50:07.024Z,1019.56
2017-10-27T01:50:07.593Z,1019.59
2017-10-27T01:50:08.193Z,1019.57
2017-10-27T01:50:08.796Z,1019.59
2017-10-27T01:50:09.394Z,1019.54
2017-10-27T01:50:09.992Z,1019.60
2017-10-27T01:50:10.593Z,1019.59
2017-10-27T01:50:11.192Z,1019.64
2017-10-27T01:51:04.670Z,1019.56
2017-10-27T01:51:05.245Z,1019.55
2017-10-27T01:51:05.847Z,1019.59
2017-10-27T01:51:06.445Z,1019.59
2017-10-27T01:51:07.044Z,1019.54
2017-10-27T01:51:07.644Z,1019.55
2017-10-27T01:51:08.244Z,1019.59
2017-10-27T01:51:08.843Z,1019.60
2017-10-27T01:52:03.346Z,1019.52
2017-10-27T01:52:03.920Z,1019.54
2017-10-27T01:52:04.519Z,1019.54
2017-10-27T01:52:05.120Z,1019.52
2017-10-27T01:52:05.720Z,1019.54
2017-10-27T01:52:06.321Z,1019.55
2017-10-27T01:52:06.920Z,1019.53
2017-10-27T01:52:07.519Z,1019.55
2017-10-27T01:53:00.999Z,1019.48
2017-10-27T01:53:01.573Z,1019.50
2017-10-27T01:53:02.173Z,1019.47
2017-10-27T01:53:02.773Z,1019.49
2017-10-27T01:53:03.376Z,1019.52
2017-10-27T01:53:03.971Z,1019.53
2017-10-27T01:53:04.572Z,1019.50
2017-10-27T01:53:05.173Z,1019.51
2017-10-27T01:53:59.675Z,1019.52
2017-10-27T01:54:00.247Z,1019.53
2017-10-27T01:54:00.847Z,1019.51
2017-10-27T01:54:01.447Z,1019.53
2017-10-27T01:54:02.048Z,1019.52
2017-10-27T01:54:02.648Z,1019.56
2017-10-27T01:54:03.247Z,1019.53
2017-10-27T01:54:03.846Z,1019.52
2017-10-27T01:54:58.349Z,1019.50
2017-10-27T01:54:58.923Z,1019.52
2017-10-27T01:54:59.522Z,1019.54
2017-10-27T01:55:00.122Z,1019.52
2017-10-27T01:55:00.723Z,1019.49
2017-10-27T01:55:01.322Z,1019.49
2017-10-27T01:55:01.921Z,1019.55
2017-10-27T01:55:02.523Z,1019.52
2017-10-27T01:55:56.001Z,1019.56
2017-10-27T01:55:56.578Z,1019.58
2017-10-27T01:55:57.177Z,1019.57
2017-10-27T01:55:57.776Z,1019.59
2017-10-27T01:55:58.374Z,1019.58
2017-10-27T01:55:58.977Z,1019.58
2017-10-27T01:55:59.576Z,1019.58
2017-10-27T01:56:00.175Z,1019.57
2017-10-27T01:56:53.653Z,1019.58
2017-10-27T01:56:54.229Z,1019.57
2017-10-27T01:56:54.827Z,1019.57
2017-10-27T01:56:55.430Z,1019.58
2017-10-27T01:56:56.026Z,1019.57
2017-10-27T01:56:56.626Z,1019.59
2017-10-27T01:56:57.225Z,1019.58
2017-10-27T01:56:57.826Z,1019.57
2017-10-27T01:57:52.329Z,1019.55
2017-10-27T01:57:52.904Z,1019.58
2017-10-27T01:57:53.502Z,1019.53
2017-10-27T01:57:54.102Z,1019.53
2017-10-27T01:57:54.703Z,1019.53
2017-10-27T01:57:55.301Z,1019.51
2017-10-27T01:57:55.902Z,1019.54
2017-10-27T01:57:56.501Z,1019.54
2017-10-27T01:58:49.980Z,1019.57
2017-10-27T01:58:50.555Z,1019.53
2017-10-27T01:58:51.155Z,1019.57
2017-10-27T01:58:51.754Z,1019.53
2017-10-27T01:58:52.354Z,1019.52
2017-10-27T01:58:52.954Z,1019.55
2017-10-27T01:58:53.556Z,1019.55
2017-10-27T01:58:54.153Z,1019.54
2017-10-27T01:59:47.632Z,1019.56
2017-10-27T01:59:48.207Z,1019.54
2017-10-27T01:59:48.806Z,1019.53
2017-10-27T01:59:49.405Z,1019.61
2017-10-27T01:59:50.006Z,1019.55
2017-10-27T01:59:50.605Z,1019.56
2017-10-27T01:59:51.208Z,1019.53
2017-10-27T01:59:51.805Z,1019.54
2017-10-27T02:00:45.284Z,1019.53
2017-10-27T02:00:45.859Z,1019.50
2017-10-27T02:00:46.456Z,1019.50
2017-10-27T02:00:47.057Z,1019.52
2017-10-27T02:00:47.657Z,1019.51
2017-10-27T02:00:48.256Z,1019.50
2017-10-27T02:00:48.863Z,1019.48
2017-10-27T02:00:49.457Z,1019.48
2017-10-27T02:01:42.941Z,1019.54
2017-10-27T02:01:43.509Z,1019.53
2017-10-27T02:01:44.111Z,1019.53
2017-10-27T02:01:44.710Z,1019.52
2017-10-27T02:01:45.311Z,1019.53
2017-10-27T02:01:45.909Z,1019.57
2017-10-27T02:01:46.511Z,1019.57
2017-10-27T02:01:47.112Z,1019.56
2017-10-27T02:02:41.612Z,1019.50
2017-10-27T02:02:42.185Z,1019.50
2017-10-27T02:02:42.785Z,1019.52
2017-10-27T02:02:43.384Z,1019.49
2017-10-27T02:02:43.985Z,1019.51
2017-10-27T02:02:44.584Z,1019.50
2017-10-27T02:02:45.184Z,1019.50
2017-10-27T02:02:45.783Z,1019.49
2017-10-27T02:03:39.265Z,1019.50
2017-10-27T02:03:39.836Z,1019.50
2017-10-27T02:03:40.435Z,1019.52
2017-10-27T02:03:41.035Z,1019.54
2017-10-27T02:03:41.635Z,1019.52
2017-10-27T02:03:42.235Z,1019.56
2017-10-27T02:03:42.835Z,1019.55
2017-10-27T02:03:43.435Z,1019.50
2017-10-27T02:04:37.939Z,1019.46
2017-10-27T02:04:38.512Z,1019.47
2017-10-27T02:04:39.112Z,1019.46
2017-10-27T02:04:39.711Z,1019.45
2017-10-27T02:04:40.311Z,1019.44
2017-10-27T02:04:40.912Z,1019.45
2017-10-27T02:04:41.511Z,1019.47
2017-10-27T02:04:42.111Z,1019.48
2017-10-27T02:05:36.615Z,1019.46
2017-10-27T02:05:37.187Z,1019.43
2017-10-27T02:05:37.788Z,1019.44
2017-10-27T02:05:38.386Z,1019.46
2017-10-27T02:05:38.987Z,1019.47
2017-10-27T02:05:39.587Z,1019.45
2017-10-27T02:05:40.187Z,1019.45
2017-10-27T02:05:40.786Z,1019.42
2017-10-27T02:06:35.290Z,1019.44
2017-10-27T02:06:35.863Z,1019.43
2017-10-27T02:06:36.464Z,1019.41
2017-10-27T02:06:37.063Z,1019.45
2017-10-27T02:06:37.663Z,1019.44
2017-10-27T02:06:38.262Z,1019.43
2017-10-27T02:06:38.864Z,1019.46
2017-10-27T02:06:39.466Z,1019.44
2017-10-27T02:07:33.965Z,1019.44
2017-10-27T02:07:34.539Z,1019.41
2017-10-27T02:07:35.138Z,1019.44
2017-10-27T02:07:35.738Z,1019.43
2017-10-27T02:07:36.338Z,1019.41
2017-10-27T02:07:36.939Z,1019.42
2017-10-27T02:07:37.545Z,1019.45
2017-10-27T02:07:38.137Z,1019.42
2017-10-27T02:08:31.617Z,1019.42
2017-10-27T02:08:32.191Z,1019.43
2017-10-27T02:08:32.792Z,1019.45
2017-10-27T02:08:33.393Z,1019.41
2017-10-27T02:08:33.992Z,1019.44
2017-10-27T02:08:34.593Z,1019.44
2017-10-27T02:08:35.193Z,1019.45
2017-10-27T02:08:35.790Z,1019.44
2017-10-27T02:09:30.292Z,1019.44
2017-10-27T02:09:30.866Z,1019.42
2017-10-27T02:09:31.466Z,1019.41
2017-10-27T02:09:32.069Z,1019.42
2017-10-27T02:09:32.665Z,1019.45
2017-10-27T02:09:33.264Z,1019.41
2017-10-27T02:09:33.866Z,1019.44
2017-10-27T02:09:34.464Z,1019.43
2017-10-27T02:10:28.968Z,1019.42
2017-10-27T02:10:29.542Z,1019.42
2017-10-27T02:10:30.143Z,1019.41
2017-10-27T02:10:30.741Z,1019.40
2017-10-27T02:10:31.350Z,1019.43
2017-10-27T02:10:31.941Z,1019.41
2017-10-27T02:10:32.542Z,1019.40
2017-10-27T02:10:33.140Z,1019.42
2017-10-27T02:11:27.643Z,1019.42
2017-10-27T02:11:28.218Z,1019.45
2017-10-27T02:11:28.817Z,1019.43
2017-10-27T02:11:29.417Z,1019.43
2017-10-27T02:11:30.016Z,1019.41
2017-10-27T02:11:30.618Z,1019.43
2017-10-27T02:11:31.217Z,1019.39
2017-10-27T02:11:31.817Z,1019.38
2017-10-27T02:12:25.296Z,1019.38
2017-10-27T02:12:25.871Z,1019.39
2017-10-27T02:12:26.470Z,1019.35
2017-10-27T02:12:27.071Z,1019.39
2017-10-27T02:12:27.672Z,1019.36
2017-10-27T02:12:28.272Z,1019.34
2017-10-27T02:12:28.869Z,1019.33
2017-10-27T02:12:29.469Z,1019.35
2017-10-27T02:13:23.972Z,1019.42
2017-10-27T02:13:24.549Z,1019.41
2017-10-27T02:13:25.144Z,1019.44
2017-10-27T02:13:25.745Z,1019.41
2017-10-27T02:13:26.344Z,1019.42
2017-10-27T02:13:26.944Z,1019.40
2017-10-27T02:13:27.544Z,1019.44
2017-10-27T02:13:28.145Z,1019.42
2017-10-27T02:14:21.624Z,1019.39
2017-10-27T02:14:22.198Z,1019.34
2017-10-27T02:14:22.798Z,1019.39
2017-10-27T02:14:23.399Z,1019.35
2017-10-27T02:14:23.997Z,1019.38
2017-10-27T02:14:24.599Z,1019.38
2017-10-27T02:14:25.197Z,1019.37
2017-10-27T02:14:25.796Z,1019.37
2017-10-27T02:15:20.316Z,1019.35
2017-10-27T02:15:20.871Z,1019.32
2017-10-27T02:15:21.471Z,1019.35
2017-10-27T02:15:22.071Z,1019.32
2017-10-27T02:15:22.672Z,1019.31
2017-10-27T02:15:23.271Z,1019.33
2017-10-27T02:15:23.871Z,1019.31
2017-10-27T02:15:24.471Z,1019.29
2017-10-27T02:16:18.974Z,1019.38
2017-10-27T02:16:19.548Z,1019.32
2017-10-27T02:16:20.150Z,1019.36
2017-10-27T02:16:20.747Z,1019.33
2017-10-27T02:16:21.346Z,1019.38
2017-10-27T02:16:21.947Z,1019.34
2017-10-27T02:16:22.547Z,1019.37
2017-10-27T02:16:23.146Z,1019.37
2017-10-27T02:17:17.649Z,1019.38
2017-10-27T02:17:18.222Z,1019.36
2017-10-27T02:17:18.822Z,1019.38
2017-10-27T02:17:19.422Z,1019.37
2017-10-27T02:17:20.024Z,1019.36
2017-10-27T02:17:20.622Z,1019.32
2017-10-27T02:17:21.222Z,1019.33
2017-10-27T02:17:21.822Z,1019.33
2017-10-27T02:18:16.324Z,1019.33
2017-10-27T02:18:16.900Z,1019.33
2017-10-27T02:18:17.499Z,1019.33
2017-10-27T02:18:18.098Z,1019.34
2017-10-27T02:18:18.702Z,1019.35
2017-10-27T02:18:19.298Z,1019.35
2017-10-27T02:18:19.899Z,1019.33
2017-10-27T02:18:20.498Z,1019.34
2017-10-27T02:19:13.976Z,1019.30
2017-10-27T02:19:14.551Z,1019.31
2017-10-27T02:19:15.151Z,1019.35
2017-10-27T02:19:15.751Z,1019.37
2017-10-27T02:19:16.351Z,1019.32
2017-10-27T02:19:16.951Z,1019.36
2017-10-27T02:19:17.550Z,1019.36
2017-10-27T02:19:18.154Z,1019.36
2017-10-27T02:20:11.628Z,1019.37
2017-10-27T02:20:12.206Z,1019.34
2017-10-27T02:20:12.803Z,1019.38
2017-10-27T02:20:13.402Z,1019.39
2017-10-27T02:20:14.005Z,1019.36
2017-10-27T02:20:14.601Z,1019.34
2017-10-27T02:20:15.203Z,1019.33
2017-10-27T02:20:15.802Z,1019.33
2017-10-27T02:21:10.305Z,1019.31
2017-10-27T02:21:10.877Z,1019.29
2017-10-27T02:21:11.478Z,1019.33
2017-10-27T02:21:12.077Z,1019.34
2017-10-27T02:21:12.678Z,1019.30
2017-10-27T02:21:13.276Z,1019.33
2017-10-27T02:21:13.876Z,1019.33
2017-10-27T02:21:14.479Z,1019.32
2017-10-27T02:22:08.980Z,1019.29
2017-10-27T02:22:09.554Z,1019.27
2017-10-27T02:22:10.153Z,1019.30
2017-10-27T02:22:10.754Z,1019.29
2017-10-27T02:22:11.354Z,1019.31
2017-10-27T02:22:11.953Z,1019.29
2017-10-27T02:22:12.553Z,1019.28
2017-10-27T02:22:13.153Z,1019.28
2017-10-27T02:23:07.656Z,1019.29
2017-10-27T02:23:08.229Z,1019.31
2017-10-27T02:23:08.830Z,1019.30
2017-10-27T02:23:09.430Z,1019.30
2017-10-27T02:23:10.030Z,1019.31
2017-10-27T02:23:10.629Z,1019.30
2017-10-27T02:23:11.229Z,1019.30
2017-10-27T02:23:11.830Z,1019.32
2017-10-27T02:24:06.332Z,1019.33
2017-10-27T02:24:06.905Z,1019.33
2017-10-27T02:24:07.505Z,1019.34
2017-10-27T02:24:08.105Z,1019.33
2017-10-27T02:24:08.707Z,1019.33
2017-10-27T02:24:09.304Z,1019.35
2017-10-27T02:24:09.903Z,1019.34
2017-10-27T02:24:10.504Z,1019.32
2017-10-27T02:25:05.008Z,1019.36
2017-10-27T02:25:05.581Z,1019.38
2017-10-27T02:25:06.181Z,1019.38
2017-10-27T02:25:06.789Z,1019.33
2017-10-27T02:25:07.381Z,1019.34
2017-10-27T02:25:07.980Z,1019.36
2017-10-27T02:25:08.579Z,1019.38
2017-10-27T02:25:09.180Z,1019.34
2017-10-27T02:26:03.682Z,1019.34
2017-10-27T02:26:04.256Z,1019.34
2017-10-27T02:26:04.856Z,1019.35
2017-10-27T02:26:05.456Z,1019.35
2017-10-27T02:26:06.060Z,1019.35
2017-10-27T02:26:06.655Z,1019.38
2017-10-27T02:26:07.256Z,1019.33
2017-10-27T02:26:07.854Z,1019.31
2017-10-27T02:27:01.334Z,1019.35
2017-10-27T02:27:01.909Z,1019.35
2017-10-27T02:27:02.511Z,1019.36
2017-10-27T02:27:03.108Z,1019.38
2017-10-27T02:27:03.709Z,1019.37
2017-10-27T02:27:04.313Z,1019.37
2017-10-27T02:27:04.909Z,1019.37
2017-10-27T02:27:05.508Z,1019.34
2017-10-27T02:28:00.020Z,1019.38
2017-10-27T02:28:00.582Z,1019.35
2017-10-27T02:28:01.185Z,1019.37
2017-10-27T02:28:01.782Z,1019.37
2017-10-27T02:28:02.386Z,1019.35
2017-10-27T02:28:02.982Z,1019.37
2017-10-27T02:28:03.583Z,1019.35
2017-10-27T02:28:04.182Z,1019.37
2017-10-27T02:28:57.660Z,1019.40
2017-10-27T02:28:58.236Z,1019.40
2017-10-27T02:28:58.836Z,1019.38
2017-10-27T02:28:59.435Z,1019.40
2017-10-27T02:29:00.035Z,1019.40
2017-10-27T02:29:00.637Z,1019.39
2017-10-27T02:29:01.235Z,1019.37
2017-10-27T02:29:01.837Z,1019.38
2017-10-27T02:29:55.314Z,1019.39
2017-10-27T02:29:55.888Z,1019.40
2017-10-27T02:29:56.487Z,1019.40
2017-10-27T02:29:57.088Z,1019.35
2017-10-27T02:29:57.688Z,1019.41
2017-10-27T02:29:58.287Z,1019.40
2017-10-27T02:29:58.893Z,1019.37
2017-10-27T02:29:59.488Z,1019.40
2017-10-27T02:30:52.964Z,1019.42
2017-10-27T02:30:53.539Z,1019.41
2017-10-27T02:30:54.140Z,1019.42
2017-10-27T02:30:54.741Z,1019.40
2017-10-27T02:30:55.339Z,1019.37
2017-10-27T02:30:55.939Z,1019.39
2017-10-27T02:30:56.541Z,1019.36
2017-10-27T02:30:57.139Z,1019.37
2017-10-27T02:31:51.642Z,1019.35
2017-10-27T02:31:52.213Z,1019.32
2017-10-27T02:31:52.814Z,1019.34
2017-10-27T02:31:53.414Z,1019.35
2017-10-27T02:31:54.015Z,1019.36
2017-10-27T02:31:54.615Z,1019.35
2017-10-27T02:31:55.213Z,1019.35
2017-10-27T02:31:55.815Z,1019.38
2017-10-27T02:32:50.316Z,1019.38
2017-10-27T02:32:50.888Z,1019.38
2017-10-27T02:32:51.489Z,1019.36
2017-10-27T02:32:52.089Z,1019.38
2017-10-27T02:32:52.688Z,1019.37
2017-10-27T02:32:53.288Z,1019.37
2017-10-27T02:32:53.889Z,1019.36
2017-10-27T02:32:54.490Z,1019.37
2017-10-27T02:33:47.967Z,1019.40
2017-10-27T02:33:48.541Z,1019.41
2017-10-27T02:33:49.141Z,1019.38
2017-10-27T02:33:49.742Z,1019.42
2017-10-27T02:33:50.342Z,1019.37
2017-10-27T02:33:50.942Z,1019.37
2017-10-27T02:33:51.541Z,1019.37
2017-10-27T02:33:52.141Z,1019.41
2017-10-27T02:52:17.996Z,1019.29
2017-10-27T02:52:18.562Z,1019.28
2017-10-27T02:52:19.162Z,1019.27
2017-10-27T02:52:19.762Z,1019.29
2017-10-27T02:52:20.363Z,1019.27
2017-10-27T02:52:20.962Z,1019.25
2017-10-27T02:52:21.562Z,1019.26
2017-10-27T02:52:22.162Z,1019.27
2017-10-27T02:53:15.640Z,1019.27
2017-10-27T02:53:16.216Z,1019.28
2017-10-27T02:53:16.815Z,1019.29
2017-10-27T02:53:17.417Z,1019.27
2017-10-27T02:53:18.013Z,1019.29
2017-10-27T02:53:18.614Z,1019.29
2017-10-27T02:53:19.213Z,1019.31
2017-10-27T02:53:19.815Z,1019.32
2017-10-27T02:54:13.291Z,1019.29
2017-10-27T02:54:13.866Z,1019.29
2017-10-27T02:54:14.466Z,1019.25
2017-10-27T02:54:15.068Z,1019.29
2017-10-27T02:54:15.666Z,1019.26
2017-10-27T02:54:16.266Z,1019.26
2017-10-27T02:54:16.865Z,1019.31
2017-10-27T02:54:17.466Z,1019.31
2017-10-27T02:55:10.944Z,1019.28
2017-10-27T02:55:11.518Z,1019.27
2017-10-27T02:55:12.118Z,1019.26
2017-10-27T02:55:12.718Z,1019.28
2017-10-27T02:55:13.317Z,1019.29
2017-10-27T02:55:13.918Z,1019.24
2017-10-27T02:55:14.518Z,1019.28
2017-10-27T02:55:15.117Z,1019.28
2017-10-27T02:56:09.619Z,1019.32
2017-10-27T02:56:10.194Z,1019.30
2017-10-27T02:56:10.794Z,1019.32
2017-10-27T02:56:11.393Z,1019.33
2017-10-27T02:56:11.993Z,1019.33
2017-10-27T02:56:12.594Z,1019.32
2017-10-27T02:56:13.192Z,1019.34
2017-10-27T02:56:13.793Z,1019.29
2017-10-27T02:57:08.294Z,1019.27
2017-10-27T02:57:08.869Z,1019.28
2017-10-27T02:57:09.477Z,1019.27
2017-10-27T02:57:10.069Z,1019.30
2017-10-27T02:57:10.668Z,1019.28
2017-10-27T02:57:11.268Z,1019.26
2017-10-27T02:57:11.868Z,1019.30
2017-10-27T02:57:12.469Z,1019.32
2017-10-27T02:58:05.948Z,1019.27
2017-10-27T02:58:06.522Z,1019.26
2017-10-27T02:58:07.122Z,1019.29
2017-10-27T02:58:07.722Z,1019.29
2017-10-27T02:58:08.322Z,1019.28
2017-10-27T02:58:08.921Z,1019.28
2017-10-27T02:58:09.523Z,1019.29
2017-10-27T02:58:10.122Z,1019.26
2017-10-27T02:59:04.624Z,1019.33
2017-10-27T02:59:05.197Z,1019.33
2017-10-27T02:59:05.796Z,1019.30
2017-10-27T02:59:06.400Z,1019.30
2017-10-27T02:59:06.997Z,1019.30
2017-10-27T02:59:07.596Z,1019.31
2017-10-27T02:59:08.196Z,1019.31
2017-10-27T02:59:08.798Z,1019.34
2017-10-27T03:00:02.280Z,1019.27
2017-10-27T03:00:02.849Z,1019.27
2017-10-27T03:00:03.451Z,1019.26
2017-10-27T03:00:04.052Z,1019.29
2017-10-27T03:00:04.650Z,1019.25
2017-10-27T03:00:05.250Z,1019.25
2017-10-27T03:00:05.851Z,1019.25
2017-10-27T03:00:06.450Z,1019.24
2017-10-27T03:01:00.953Z,1019.27
2017-10-27T03:01:01.524Z,1019.30
2017-10-27T03:01:02.125Z,1019.30
2017-10-27T03:01:02.723Z,1019.29
2017-10-27T03:01:03.328Z,1019.27
2017-10-27T03:01:03.924Z,1019.30
2017-10-27T03:01:04.524Z,1019.26
2017-10-27T03:01:05.124Z,1019.23
2017-10-27T03:01:59.626Z,1019.26
2017-10-27T03:02:00.201Z,1019.30
2017-10-27T03:02:00.800Z,1019.23
2017-10-27T03:02:01.401Z,1019.22
2017-10-27T03:02:02.000Z,1019.26
2017-10-27T03:02:02.600Z,1019.24
2017-10-27T03:02:03.203Z,1019.25
2017-10-27T03:02:03.800Z,1019.27
2017-10-27T03:02:57.278Z,1019.29
2017-10-27T03:02:57.852Z,1019.26
2017-10-27T03:02:58.457Z,1019.24
2017-10-27T03:02:59.053Z,1019.28
2017-10-27T03:02:59.653Z,1019.23
2017-10-27T03:03:00.254Z,1019.28
2017-10-27T03:03:00.852Z,1019.26
2017-10-27T03:03:01.452Z,1019.28
2017-10-27T03:03:54.935Z,1019.20
2017-10-27T03:03:55.506Z,1019.22
2017-10-27T03:03:56.103Z,1019.22
2017-10-27T03:03:56.704Z,1019.22
2017-10-27T03:03:57.304Z,1019.21
2017-10-27T03:03:57.905Z,1019.21
2017-10-27T03:03:58.504Z,1019.20
2017-10-27T03:03:59.105Z,1019.19
2017-10-27T03:04:53.606Z,1019.21
2017-10-27T03:04:54.183Z,1019.20
2017-10-27T03:04:54.782Z,1019.17
2017-10-27T03:04:55.381Z,1019.19
2017-10-27T03:04:55.980Z,1019.20
2017-10-27T03:04:56.579Z,1019.19
2017-10-27T03:04:57.180Z,1019.23
2017-10-27T03:04:57.780Z,1019.19
2017-10-27T03:05:51.258Z,1019.31
2017-10-27T03:05:51.833Z,1019.27
2017-10-27T03:05:52.433Z,1019.21
2017-10-27T03:05:53.032Z,1019.21
2017-10-27T03:05:53.632Z,1019.25
2017-10-27T03:05:54.233Z,1019.26
2017-10-27T03:05:54.832Z,1019.26
2017-10-27T03:05:55.431Z,1019.22
2017-10-27T03:06:48.909Z,1019.29
2017-10-27T03:06:49.483Z,1019.29
2017-10-27T03:06:50.088Z,1019.31
2017-10-27T03:06:50.682Z,1019.29
2017-10-27T03:06:51.283Z,1019.30
2017-10-27T03:06:51.883Z,1019.30
2017-10-27T03:06:52.482Z,1019.30
2017-10-27T03:06:53.083Z,1019.32
2017-10-27T03:07:47.587Z,1019.28
2017-10-27T03:07:48.159Z,1019.33
2017-10-27T03:07:48.759Z,1019.31
2017-10-27T03:07:49.359Z,1019.32
2017-10-27T03:07:49.962Z,1019.32
2017-10-27T03:07:50.559Z,1019.30
2017-10-27T03:07:51.157Z,1019.33
2017-10-27T03:07:51.758Z,1019.34
2017-10-27T03:08:46.261Z,1019.33
2017-10-27T03:08:46.834Z,1019.30
2017-10-27T03:08:47.434Z,1019.32
2017-10-27T03:08:48.034Z,1019.35
2017-10-27T03:08:48.634Z,1019.33
2017-10-27T03:08:49.234Z,1019.36
2017-10-27T03:08:49.834Z,1019.32
2017-10-27T03:08:50.433Z,1019.37
2017-10-27T03:09:43.912Z,1019.30
2017-10-27T03:09:44.488Z,1019.31
2017-10-27T03:09:45.087Z,1019.31
2017-10-27T03:09:45.693Z,1019.33
2017-10-27T03:09:46.288Z,1019.34
2017-10-27T03:09:46.887Z,1019.29
2017-10-27T03:09:47.486Z,1019.32
2017-10-27T03:09:48.091Z,1019.32
2017-10-27T03:10:41.564Z,1019.29
2017-10-27T03:10:42.139Z,1019.31
2017-10-27T03:10:42.739Z,1019.31
2017-10-27T03:10:43.338Z,1019.32
2017-10-27T03:10:43.938Z,1019.31
2017-10-27T03:10:44.541Z,1019.33
2017-10-27T03:10:45.139Z,1019.35
2017-10-27T03:10:45.737Z,1019.33
2017-10-27T03:11:39.216Z,1019.33
2017-10-27T03:11:39.793Z,1019.33
2017-10-27T03:11:40.390Z,1019.35
2017-10-27T03:11:40.990Z,1019.34
2017-10-27T03:11:41.590Z,1019.34
2017-10-27T03:11:42.191Z,1019.38
2017-10-27T03:11:42.790Z,1019.35
2017-10-27T03:11:43.390Z,1019.35
2017-10-27T03:12:36.867Z,1019.37
2017-10-27T03:12:37.444Z,1019.41
2017-10-27T03:12:38.042Z,1019.37
2017-10-27T03:12:38.643Z,1019.39
2017-10-27T03:12:39.242Z,1019.37
2017-10-27T03:12:39.843Z,1019.40
2017-10-27T03:12:40.442Z,1019.37
2017-10-27T03:12:41.042Z,1019.40
2017-10-27T03:13:35.545Z,1019.35
2017-10-27T03:13:36.117Z,1019.33
2017-10-27T03:13:36.717Z,1019.34
2017-10-27T03:13:37.318Z,1019.33
2017-10-27T03:13:37.917Z,1019.34
2017-10-27T03:13:38.517Z,1019.34
2017-10-27T03:13:39.117Z,1019.36
2017-10-27T03:13:39.722Z,1019.33
2017-10-27T03:14:34.220Z,1019.33
2017-10-27T03:14:34.800Z,1019.31
2017-10-27T03:14:35.393Z,1019.32
2017-10-27T03:14:35.997Z,1019.34
2017-10-27T03:14:36.591Z,1019.34
2017-10-27T03:14:37.192Z,1019.37
2017-10-27T03:14:37.792Z,1019.32
2017-10-27T03:14:38.392Z,1019.33
2017-10-27T03:15:31.871Z,1019.31
2017-10-27T03:15:32.446Z,1019.34
2017-10-27T03:15:33.046Z,1019.31
2017-10-27T03:15:33.645Z,1019.33
2017-10-27T03:15:34.246Z,1019.33
2017-10-27T03:15:34.844Z,1019.33
2017-10-27T03:15:35.445Z,1019.31
2017-10-27T03:15:36.050Z,1019.35
2017-10-27T03:16:29.523Z,1019.32
2017-10-27T03:16:30.097Z,1019.30
2017-10-27T03:16:30.695Z,1019.33
2017-10-27T03:16:31.297Z,1019.28
2017-10-27T03:16:31.897Z,1019.27
2017-10-27T03:16:32.496Z,1019.29
2017-10-27T03:16:33.100Z,1019.31
2017-10-27T03:16:33.696Z,1019.34
2017-10-27T03:17:28.200Z,1019.35
2017-10-27T03:17:28.773Z,1019.35
2017-10-27T03:17:29.372Z,1019.33
2017-10-27T03:17:29.972Z,1019.32
2017-10-27T03:17:30.571Z,1019.33
2017-10-27T03:17:31.172Z,1019.32
2017-10-27T03:17:31.771Z,1019.29
2017-10-27T03:17:32.371Z,1019.30
2017-10-27T03:18:26.874Z,1019.30
2017-10-27T03:18:27.448Z,1019.33
2017-10-27T03:18:28.048Z,1019.34
2017-10-27T03:18:28.646Z,1019.38
2017-10-27T03:18:29.246Z,1019.34
2017-10-27T03:18:29.846Z,1019.36
2017-10-27T03:18:30.450Z,1019.35
2017-10-27T03:18:31.047Z,1019.36
2017-10-27T03:19:24.528Z,1019.41
2017-10-27T03:19:25.099Z,1019.40
2017-10-27T03:19:25.699Z,1019.40
2017-10-27T03:19:26.300Z,1019.40
2017-10-27T03:19:26.898Z,1019.37
2017-10-27T03:19:27.500Z,1019.39
2017-10-27T03:19:28.099Z,1019.42
2017-10-27T03:19:28.700Z,1019.38
2017-10-27T03:20:22.177Z,1019.38
2017-10-27T03:20:22.754Z,1019.36
2017-10-27T03:20:23.353Z,1019.34
2017-10-27T03:20:23.952Z,1019.38
2017-10-27T03:20:24.553Z,1019.34
2017-10-27T03:20:25.153Z,1019.37
2017-10-27T03:20:25.751Z,1019.36
2017-10-27T03:20:26.351Z,1019.34
2017-10-27T03:21:20.854Z,1019.39
2017-10-27T03:21:21.426Z,1019.36
2017-10-27T03:21:22.026Z,1019.36
2017-10-27T03:21:22.626Z,1019.41
2017-10-27T03:21:23.226Z,1019.40
2017-10-27T03:21:23.825Z,1019.42